Time;durP1;ratioP1;P1;durP2;ratioP2;P2;SDS_P1;SDS_P2;PMS_P1;PMS_P2;Temp;Humidity;BMP_temperature;BMP_pressure;BME280_temperature;BME280_humidity;BME280_pressure;Samples;Min_cycle;Max_cycle;Signal;HPM_P1;HPM_P2
2023/01/05 00:01:58;;;;;;;1.23;1.17;;;;;;;-2.38;76.61;98677.34;5100429;27;20397;-72
2023/01/05 00:04:23;;;;;;;1.08;0.85;;;;;;;-2.33;76.92;98672.78;5099831;27;20054;-73
2023/01/05 00:06:48;;;;;;;1.60;0.95;;;;;;;-2.25;76.61;98663.78;5082147;27;20078;-73
2023/01/05 00:09:16;;;;;;;0.82;0.82;;;;;;;-2.12;76.24;98671.19;5081107;27;20039;-73
2023/01/05 00:22:48;;;;;;;1.48;1.23;;;;;;;-1.83;75.80;98661.38;5096789;27;20039;-73
2023/01/05 00:25:16;;;;;;;0.90;0.90;;;;;;;-1.76;75.53;98662.00;5095814;27;20095;-71
2023/01/05 00:27:42;;;;;;;0.98;0.80;;;;;;;-1.85;74.63;98652.75;5079037;27;20041;-71
2023/01/05 00:30:12;;;;;;;0.68;0.63;;;;;;;-1.85;74.75;98654.50;5115584;27;20448;-73
2023/01/05 00:32:37;;;;;;;1.45;1.17;;;;;;;-1.85;74.48;98649.28;5111835;27;20047;-74
2023/01/05 00:35:03;;;;;;;0.88;0.88;;;;;;;-1.80;74.40;98649.09;5083241;27;20043;-74
2023/01/05 00:37:31;;;;;;;5.47;1.15;;;;;;;-1.75;74.33;98652.41;5082799;27;20039;-73
2023/01/05 00:39:55;;;;;;;1.80;1.60;;;;;;;-1.75;73.89;98648.03;5092906;27;20036;-74
2023/01/05 00:42:21;;;;;;;3.35;1.60;;;;;;;-1.71;73.76;98656.63;5065500;27;20043;-74
2023/01/05 00:44:46;;;;;;;2.35;1.25;;;;;;;-1.68;73.88;98649.50;5082234;27;20046;-73
2023/01/05 00:47:11;;;;;;;0.98;0.98;;;;;;;-1.82;75.16;98649.19;5098978;27;20035;-72
2023/01/05 00:49:35;;;;;;;1.35;1.25;;;;;;;-1.80;75.98;98646.47;5063574;27;20074;-72
2023/01/05 00:52:01;;;;;;;0.80;0.80;;;;;;;-1.84;77.33;98637.94;5080188;27;20522;-73
2023/01/05 00:54:26;;;;;;;1.30;1.05;;;;;;;-1.80;77.91;98643.88;5060120;28;20571;-70
2023/01/05 00:56:50;;;;;;;3.17;1.17;;;;;;;-1.81;78.21;98643.06;5060223;28;20947;-71
2023/01/05 00:59:16;;;;;;;0.82;0.60;;;;;;;-1.80;78.59;98634.28;5078072;27;20572;-72
2023/01/05 01:01:44;;;;;;;1.38;0.70;;;;;;;-1.85;79.19;98641.44;5071831;27;20099;-72
2023/01/05 01:04:08;;;;;;;0.88;0.65;;;;;;;-1.78;78.97;98632.47;5080011;27;20474;-72
2023/01/05 01:06:33;;;;;;;1.45;0.80;;;;;;;-1.89;79.08;98632.88;5063086;28;20423;-76
2023/01/05 01:08:58;;;;;;;2.80;1.30;;;;;;;-2.00;79.16;98621.13;5077994;27;20111;-73
2023/01/05 01:11:22;;;;;;;0.95;0.80;;;;;;;-1.95;79.09;98630.50;5055872;28;20042;-73
2023/01/05 01:13:47;;;;;;;1.08;0.90;;;;;;;-2.00;79.20;98631.56;5037654;28;20054;-72
2023/01/05 01:16:14;;;;;;;1.40;1.05;;;;;;;-2.07;79.61;98628.34;5099743;27;20043;-77
2023/01/05 01:18:40;;;;;;;1.23;1.00;;;;;;;-2.08;79.50;98623.16;5066076;27;20508;-78
2023/01/05 01:21:04;;;;;;;1.48;0.88;;;;;;;-2.05;79.37;98623.06;5082231;27;20060;-74
2023/01/05 01:23:30;;;;;;;2.20;1.23;;;;;;;-2.04;79.61;98627.38;5084095;27;20031;-76
2023/01/05 01:25:55;;;;;;;1.15;0.75;;;;;;;-1.97;79.62;98621.88;5087633;27;20051;-76
2023/01/05 01:28:20;;;;;;;2.17;1.42;;;;;;;-2.01;79.50;98624.63;5099234;27;20095;-75
2023/01/05 01:30:44;;;;;;;2.20;1.33;;;;;;;-1.93;79.06;98623.47;5089186;27;20046;-77
2023/01/05 01:33:09;;;;;;;0.88;0.88;;;;;;;-1.89;79.09;98625.03;5101928;27;20559;-76
2023/01/05 01:35:36;;;;;;;1.25;0.85;;;;;;;-1.81;78.78;98618.69;5084863;27;20074;-75
2023/01/05 01:38:01;;;;;;;1.10;0.90;;;;;;;-1.81;78.72;98618.69;5062274;27;20028;-76
2023/01/05 01:40:26;;;;;;;3.38;1.50;;;;;;;-1.88;78.55;98618.03;5055199;27;20031;-76
2023/01/05 01:42:51;;;;;;;3.00;1.67;;;;;;;-2.01;79.05;98617.66;5065682;27;20073;-76
2023/01/05 01:45:21;;;;;;;1.98;1.60;;;;;;;-1.96;79.43;98620.97;5098365;27;20500;-76
2023/01/05 01:47:59;;;;;;;2.70;1.65;;;;;;;-1.97;79.72;98621.88;5088899;27;20098;-78
2023/01/05 01:50:54;;;;;;;2.17;1.90;;;;;;;-1.94;79.51;98619.16;5067210;27;20390;-79
2023/01/05 01:53:19;;;;;;;3.92;1.70;;;;;;;-1.97;79.72;98621.00;5011863;28;20090;-76
2023/01/05 01:55:43;;;;;;;4.80;3.28;;;;;;;-1.98;79.69;98633.22;5015323;28;20057;-77
2023/01/05 01:58:12;;;;;;;1.85;1.30;;;;;;;-1.98;79.77;98622.78;4997885;28;20139;-78
2023/01/05 02:00:40;;;;;;;2.20;1.48;;;;;;;-1.92;79.86;98619.91;5014146;28;20048;-75
2023/01/05 02:03:05;;;;;;;2.30;1.60;;;;;;;-1.90;80.17;98620.72;5008058;28;20047;-71
2023/01/05 02:05:31;;;;;;;2.42;1.80;;;;;;;-1.90;79.79;98612.88;4999790;28;20116;-75
2023/01/05 02:07:56;;;;;;;1.70;1.55;;;;;;;-1.95;79.59;98617.44;5018000;28;20132;-77
2023/01/05 02:10:40;;;;;;;3.28;1.85;;;;;;;-1.90;79.60;98619.88;5000702;28;20135;-75
2023/01/05 02:13:27;;;;;;;2.50;1.85;;;;;;;-1.96;79.40;98615.75;4997245;28;20049;-72
2023/01/05 02:16:53;;;;;;;2.15;1.80;;;;;;;-1.99;79.65;98608.00;5000068;28;20045;-72
2023/01/05 02:19:59;;;;;;;3.10;1.92;;;;;;;-1.93;79.70;98604.34;4996414;28;20051;-74
2023/01/05 02:22:38;;;;;;;2.08;1.73;;;;;;;-1.99;79.91;98601.94;4939777;28;20047;-74
2023/01/05 02:25:14;;;;;;;3.17;2.55;;;;;;;-2.10;79.69;98594.50;4939849;28;20133;-73
2023/01/05 02:27:51;;;;;;;6.10;3.20;;;;;;;-2.17;79.58;98595.66;4953006;28;20461;-67
2023/01/05 02:30:38;;;;;;;4.15;2.72;;;;;;;-2.27;79.66;98591.69;4977465;28;20207;-73
2023/01/05 02:33:31;;;;;;;3.53;2.17;;;;;;;-2.27;79.69;98589.91;4989243;28;20041;-74
2023/01/05 02:36:26;;;;;;;4.07;2.72;;;;;;;-2.31;79.60;98590.06;4988379;28;20048;-73
2023/01/05 02:39:18;;;;;;;5.03;2.53;;;;;;;-2.21;79.70;98589.69;4997037;28;20511;-78
2023/01/05 02:41:58;;;;;;;5.20;2.97;;;;;;;-2.24;79.60;98594.16;4984897;28;20040;-74
2023/01/05 02:44:27;;;;;;;6.38;3.40;;;;;;;-2.19;79.55;98592.25;5010714;28;20095;-74
2023/01/05 02:47:27;;;;;;;3.78;2.97;;;;;;;-2.18;79.17;98580.88;5002530;28;20041;-74
2023/01/05 02:50:07;;;;;;;5.15;3.15;;;;;;;-2.15;78.81;98586.00;4986183;28;20049;-74
2023/01/05 02:52:40;;;;;;;4.47;3.20;;;;;;;-2.21;78.95;98581.00;4997508;28;20152;-75
2023/01/05 02:55:12;;;;;;;3.67;2.78;;;;;;;-2.28;79.00;98579.53;4995324;28;20045;-73
2023/01/05 02:57:46;;;;;;;4.72;3.33;;;;;;;-2.33;78.98;98581.44;5013322;28;20131;-76
2023/01/05 03:00:24;;;;;;;4.45;2.60;;;;;;;-2.15;79.00;98580.78;5076868;27;20086;-76
2023/01/05 03:02:54;;;;;;;5.90;3.33;;;;;;;-2.18;79.15;98583.50;5096996;27;20039;-72
2023/01/05 03:05:24;;;;;;;5.28;3.15;;;;;;;-2.16;78.86;98576.47;5077545;27;20047;-66
2023/01/05 03:07:53;;;;;;;5.93;3.60;;;;;;;-2.13;79.07;98573.72;5054743;28;20134;-68
2023/01/05 03:15:57;;;;;;;4.43;2.88;;;;;;;-2.02;78.66;98573.31;5042455;27;19966;-74
2023/01/05 03:18:22;;;;;;;4.53;3.25;;;;;;;-2.03;78.78;98574.25;5077864;27;20050;-75
2023/01/05 03:20:52;;;;;;;5.32;3.75;;;;;;;-2.04;78.94;98572.53;5060782;27;20050;-76
2023/01/05 03:37:42;;;;;;;7.63;3.88;;;;;;;-2.27;77.84;98553.38;5078363;27;20043;-73
2023/01/05 03:40:15;;;;;;;3.97;2.67;;;;;;;-2.30;77.87;98550.88;5070756;27;20042;-71
2023/01/05 03:42:42;;;;;;;3.03;2.72;;;;;;;-2.33;77.78;98560.56;5056822;28;20058;-78
2023/01/05 03:45:09;;;;;;;4.00;2.70;;;;;;;-2.36;77.79;98556.31;5058018;28;20418;-74
2023/01/05 03:47:34;;;;;;;4.03;2.92;;;;;;;-2.39;77.49;98558.19;5070689;27;20042;-72
2023/01/05 03:50:00;;;;;;;4.40;2.88;;;;;;;-2.43;76.36;98551.38;5060899;27;20045;-75
2023/01/05 03:52:25;;;;;;;2.17;1.90;;;;;;;-2.45;76.69;98554.03;5060170;28;20060;-72
2023/01/05 03:54:50;;;;;;;5.28;3.15;;;;;;;-2.47;75.87;98552.38;5040257;28;20051;-72
2023/01/05 03:57:14;;;;;;;4.38;2.78;;;;;;;-2.45;75.89;98547.97;5093494;27;20134;-73
2023/01/05 03:59:41;;;;;;;3.13;2.40;;;;;;;-2.47;76.11;98547.16;5060685;28;20090;-77
2023/01/05 04:02:06;;;;;;;3.25;2.38;;;;;;;-2.49;75.82;98538.56;5060002;28;20071;-77
2023/01/05 04:04:31;;;;;;;4.47;2.72;;;;;;;-2.50;75.40;98542.09;5045312;28;20119;-72
2023/01/05 04:06:57;;;;;;;3.70;2.80;;;;;;;-2.49;75.80;98538.56;5038538;28;20100;-73
2023/01/05 04:09:22;;;;;;;5.93;3.40;;;;;;;-2.49;75.50;98542.03;5057849;28;20036;-75
2023/01/05 04:11:47;;;;;;;4.90;3.15;;;;;;;-2.48;75.26;98545.50;5057271;28;20054;-71
2023/01/05 04:14:12;;;;;;;4.95;3.10;;;;;;;-2.45;75.29;98537.53;5039016;28;20036;-72
2023/01/05 04:16:36;;;;;;;4.65;3.22;;;;;;;-2.44;74.72;98537.47;5062352;28;20050;-72
2023/01/05 04:19:10;;;;;;;3.67;2.90;;;;;;;-2.41;74.32;98539.13;5061591;28;20122;-73
2023/01/05 04:21:38;;;;;;;4.55;3.70;;;;;;;-2.42;74.12;98535.66;5023543;28;20071;-72
2023/01/05 04:24:03;;;;;;;5.05;3.25;;;;;;;-2.40;74.34;98535.63;5056877;28;20031;-74
2023/01/05 04:26:27;;;;;;;4.35;2.88;;;;;;;-2.41;74.00;98536.50;5057683;28;20039;-76
2023/01/05 04:28:53;;;;;;;4.30;3.15;;;;;;;-2.38;73.74;98536.41;5057507;28;20044;-74
2023/01/05 04:31:21;;;;;;;5.45;3.22;;;;;;;-2.36;74.28;98531.97;5037057;28;20051;-75
2023/01/05 04:33:48;;;;;;;4.05;2.80;;;;;;;-2.36;73.76;98532.81;5019804;28;20044;-69
2023/01/05 04:36:16;;;;;;;4.80;3.22;;;;;;;-2.34;73.77;98525.78;5040275;28;20059;-70
2023/01/05 04:38:40;;;;;;;5.25;3.38;;;;;;;-2.37;73.83;98515.44;5013642;28;20035;-71
2023/01/05 04:41:06;;;;;;;6.43;3.35;;;;;;;-2.37;73.69;98519.84;5052342;28;20052;-69
2023/01/05 04:43:31;;;;;;;4.90;3.28;;;;;;;-2.38;74.06;98519.00;5036353;28;20043;-69
2023/01/05 04:45:58;;;;;;;7.38;4.82;;;;;;;-2.45;72.46;98517.50;5033632;28;20040;-71
2023/01/05 04:48:23;;;;;;;11.10;6.50;;;;;;;-2.47;72.27;98521.06;5059835;28;20039;-71
2023/01/05 04:50:53;;;;;;;9.60;5.53;;;;;;;-2.42;72.63;98519.16;5060500;28;20047;-70
2023/01/05 04:53:22;;;;;;;8.13;4.35;;;;;;;-2.43;72.50;98518.31;5060713;28;20044;-69
2023/01/05 04:55:46;;;;;;;8.25;4.90;;;;;;;-2.41;72.01;98518.25;5078796;28;20493;-70
2023/01/05 04:58:11;;;;;;;10.68;4.72;;;;;;;-2.41;71.99;98511.28;5033791;28;20624;-70
2023/01/05 05:00:37;;;;;;;5.97;3.95;;;;;;;-2.38;72.30;98520.75;5065729;27;20594;-71
2023/01/05 05:03:03;;;;;;;7.15;3.55;;;;;;;-2.36;72.49;98517.16;5100749;27;20085;-69
2023/01/05 05:05:30;;;;;;;7.93;4.13;;;;;;;-2.34;72.56;98517.09;5100696;27;20050;-69
2023/01/05 05:07:55;;;;;;;10.68;4.80;;;;;;;-2.36;71.99;98524.13;5100926;27;20050;-70
2023/01/05 05:10:23;;;;;;;7.65;4.65;;;;;;;-2.36;71.62;98518.91;5100614;27;20540;-73
2023/01/05 05:12:49;;;;;;;5.68;3.85;;;;;;;-2.34;71.73;98509.28;5100776;27;20034;-71
2023/01/05 05:15:14;;;;;;;9.25;5.57;;;;;;;-2.35;71.68;98516.25;5119125;27;20057;-71
2023/01/05 05:17:43;;;;;;;6.28;4.13;;;;;;;-2.35;71.89;98515.41;5106215;27;20046;-71
2023/01/05 05:20:10;;;;;;;6.28;4.10;;;;;;;-2.33;72.06;98509.22;5081350;27;20047;-70
2023/01/05 05:22:36;;;;;;;9.52;5.30;;;;;;;-2.30;72.06;98506.50;5096446;27;20053;-72
2023/01/05 05:25:01;;;;;;;8.40;4.55;;;;;;;-2.26;72.50;98515.91;5100414;27;20038;-72
2023/01/05 05:27:27;;;;;;;5.97;3.58;;;;;;;-2.25;72.44;98501.09;5084401;27;20865;-77
2023/01/05 05:29:52;;;;;;;7.00;4.18;;;;;;;-2.23;72.35;98502.72;5106661;27;20043;-76
2023/01/05 05:32:17;;;;;;;9.15;4.85;;;;;;;-2.20;72.12;98504.38;5121391;27;20044;-76
2023/01/05 05:34:41;;;;;;;9.48;4.15;;;;;;;-2.22;72.09;98495.75;5065526;27;20066;-76
2023/01/05 05:37:06;;;;;;;12.00;4.70;;;;;;;-2.23;71.88;98500.13;5081235;27;20050;-76
2023/01/05 05:39:30;;;;;;;6.65;4.55;;;;;;;-2.43;69.53;98504.41;5114790;27;20042;-75
2023/01/05 05:41:55;;;;;;;9.27;5.80;;;;;;;-2.47;69.87;98505.41;5120033;27;20099;-76
2023/01/05 05:44:20;;;;;;;13.80;5.25;;;;;;;-2.52;70.05;98495.16;5101927;27;20038;-75
2023/01/05 05:46:44;;;;;;;7.82;4.90;;;;;;;-2.57;70.26;98497.94;5121648;27;20042;-74
2023/01/05 05:49:09;;;;;;;6.95;4.45;;;;;;;-2.57;70.11;98502.28;5104043;27;20035;-74
2023/01/05 05:51:33;;;;;;;10.65;4.63;;;;;;;-2.61;70.20;98493.75;5082681;27;20094;-73
2023/01/05 05:53:58;;;;;;;9.73;5.38;;;;;;;-2.65;70.36;98493.91;5118119;27;20551;-74
2023/01/05 05:56:23;;;;;;;8.48;5.03;;;;;;;-2.64;70.75;98486.03;5118125;27;20189;-74
2023/01/05 05:58:47;;;;;;;11.55;6.18;;;;;;;-2.61;71.31;98492.91;5099275;27;20103;-75
2023/01/05 06:01:12;;;;;;;6.90;4.72;;;;;;;-2.57;71.22;98494.47;5100660;27;20034;-74
2023/01/05 06:03:37;;;;;;;12.15;5.95;;;;;;;-2.56;71.49;98486.59;5099447;27;20066;-73
2023/01/05 06:06:02;;;;;;;8.25;5.13;;;;;;;-2.52;71.55;98494.31;5082611;27;20038;-73
2023/01/05 06:08:28;;;;;;;10.32;5.50;;;;;;;-2.53;70.77;98492.59;5100275;27;20127;-73
2023/01/05 06:10:53;;;;;;;7.47;4.50;;;;;;;-2.52;70.99;98492.56;5117869;27;20062;-73
2023/01/05 06:13:17;;;;;;;11.98;5.97;;;;;;;-2.52;70.39;98489.94;5099853;27;20089;-72
2023/01/05 06:15:42;;;;;;;10.88;5.50;;;;;;;-2.50;70.92;98485.53;5117714;27;20058;-71
2023/01/05 06:18:07;;;;;;;15.32;6.18;;;;;;;-2.48;71.11;98475.03;5117807;27;20122;-72
2023/01/05 06:20:32;;;;;;;9.77;5.30;;;;;;;-2.46;71.32;98487.09;5117667;27;20408;-74
2023/01/05 06:22:56;;;;;;;13.05;5.47;;;;;;;-2.42;71.36;98487.84;5099013;27;20065;-72
2023/01/05 06:25:21;;;;;;;10.93;5.25;;;;;;;-2.41;71.60;98484.31;5099267;27;20408;-73
2023/01/05 06:27:45;;;;;;;10.38;4.90;;;;;;;-2.38;71.69;98489.44;5099384;27;20385;-73
2023/01/05 06:30:11;;;;;;;8.50;4.95;;;;;;;-2.35;72.04;98478.84;5118255;27;20034;-75
2023/01/05 06:32:35;;;;;;;15.98;6.20;;;;;;;-2.33;72.03;98483.13;5118191;27;20077;-73
2023/01/05 06:35:00;;;;;;;8.48;4.80;;;;;;;-2.30;71.66;98474.31;5098920;27;20062;-73
2023/01/05 06:37:24;;;;;;;9.95;4.93;;;;;;;-2.27;72.10;98484.66;5099636;27;20034;-73
2023/01/05 06:39:49;;;;;;;7.85;4.85;;;;;;;-2.24;71.84;98471.47;5078690;27;20090;-73
2023/01/05 06:42:14;;;;;;;7.28;4.65;;;;;;;-2.21;72.02;98471.34;5107328;27;20074;-74
2023/01/05 06:44:38;;;;;;;6.05;4.80;;;;;;;-2.22;71.40;98467.88;5098952;27;20039;-74
2023/01/05 06:47:03;;;;;;;7.18;4.15;;;;;;;-2.21;71.18;98471.34;5098742;27;20062;-74
2023/01/05 06:49:28;;;;;;;6.40;3.53;;;;;;;-2.20;71.29;98470.44;5117248;27;20043;-73
2023/01/05 06:51:52;;;;;;;6.82;3.50;;;;;;;-2.21;70.87;98471.34;5098577;27;20046;-74
2023/01/05 06:54:17;;;;;;;5.70;3.80;;;;;;;-2.21;70.42;98468.75;5098802;27;20087;-74
2023/01/05 06:56:42;;;;;;;5.63;4.15;;;;;;;-2.27;68.67;98464.63;5098477;27;20073;-72
2023/01/05 06:59:06;;;;;;;6.75;3.22;;;;;;;-2.26;68.89;98466.28;5116750;27;20046;-73
2023/01/05 07:01:31;;;;;;;5.05;3.47;;;;;;;-2.24;69.29;98466.25;5117380;27;20047;-73
2023/01/05 07:03:55;;;;;;;5.07;3.08;;;;;;;-2.23;69.40;98462.72;5098201;27;20504;-73
2023/01/05 07:06:20;;;;;;;6.93;3.75;;;;;;;-2.21;69.36;98469.59;5098142;27;20042;-74
2023/01/05 07:08:45;;;;;;;4.68;3.35;;;;;;;-2.21;69.47;98469.59;5116632;27;20074;-73
2023/01/05 07:11:09;;;;;;;6.75;4.35;;;;;;;-2.20;69.66;98471.28;5115953;27;20087;-73
2023/01/05 07:13:34;;;;;;;6.45;4.43;;;;;;;-2.16;69.88;98469.44;5116903;27;20046;-73
2023/01/05 07:15:58;;;;;;;7.97;3.83;;;;;;;-2.15;69.60;98468.53;5116859;27;20062;-73
2023/01/05 07:18:23;;;;;;;5.43;3.72;;;;;;;-2.14;69.32;98467.59;5081273;27;20038;-73
2023/01/05 07:20:47;;;;;;;7.53;4.57;;;;;;;-2.15;69.36;98460.69;5116739;27;20039;-73
2023/01/05 07:23:12;;;;;;;6.07;4.43;;;;;;;-2.13;69.38;98464.06;5116919;27;20062;-73
2023/01/05 07:25:37;;;;;;;6.03;3.75;;;;;;;-2.12;69.03;98465.75;5103331;27;20386;-74
2023/01/05 07:28:01;;;;;;;4.53;3.53;;;;;;;-2.13;69.22;98466.66;5100966;27;20035;-72
2023/01/05 07:30:26;;;;;;;7.07;4.20;;;;;;;-2.13;69.14;98463.22;5123122;27;20539;-73
2023/01/05 07:32:51;;;;;;;7.32;4.57;;;;;;;-2.15;69.42;98459.84;5066681;27;20035;-73
2023/01/05 07:35:15;;;;;;;6.68;4.50;;;;;;;-2.17;69.39;98462.50;5085919;27;20039;-75
2023/01/05 07:37:40;;;;;;;9.10;4.75;;;;;;;-2.16;69.39;98469.44;5116720;27;20514;-75
2023/01/05 07:40:06;;;;;;;7.93;4.63;;;;;;;-2.14;69.28;98464.16;5116847;27;20129;-74
2023/01/05 07:42:31;;;;;;;6.15;4.50;;;;;;;-2.14;69.42;98464.97;5099150;27;20050;-73
2023/01/05 07:44:56;;;;;;;7.93;5.05;;;;;;;-2.15;69.21;98460.69;5098854;27;20034;-74
2023/01/05 07:47:21;;;;;;;6.07;3.72;;;;;;;-2.12;68.63;98476.22;5116877;27;20054;-75
2023/01/05 07:49:46;;;;;;;7.82;4.93;;;;;;;-2.10;69.17;98461.34;5099046;27;20042;-74
2023/01/05 07:52:10;;;;;;;10.75;5.03;;;;;;;-2.08;69.35;98456.91;5099626;27;20046;-75
2023/01/05 07:54:35;;;;;;;6.75;4.90;;;;;;;-2.05;69.39;98456.81;5099675;27;20477;-76
2023/01/05 07:57:00;;;;;;;7.63;4.85;;;;;;;-2.05;68.79;98456.81;5117080;27;20053;-75
2023/01/05 07:59:25;;;;;;;10.20;5.03;;;;;;;-2.02;68.84;98461.88;5099752;27;20046;-77
2023/01/05 08:01:49;;;;;;;10.88;5.60;;;;;;;-1.98;68.58;98462.63;5118099;27;20055;-75
2023/01/05 08:04:14;;;;;;;7.93;4.60;;;;;;;-1.95;68.31;98459.88;5117825;27;20442;-75
2023/01/05 08:06:38;;;;;;;9.07;5.32;;;;;;;-1.92;67.95;98462.38;5117985;27;20049;-75
2023/01/05 08:10:27;;;;;;;6.70;4.65;;;;;;;-1.89;67.83;98463.09;5117449;27;20106;-76
2023/01/05 08:11:48;;;;;;;8.38;4.95;;;;;;;-1.84;67.90;98445.50;5097905;27;20091;-77
2023/01/05 08:14:12;;;;;;;17.33;5.20;;;;;;;-1.83;68.02;98448.94;5116558;27;20038;-75
2023/01/05 08:16:37;;;;;;;7.95;4.93;;;;;;;-1.84;68.20;98448.09;5116332;27;20085;-74
2023/01/05 08:19:02;;;;;;;10.23;5.78;;;;;;;-1.83;67.90;98449.81;5116408;27;20062;-74
2023/01/05 08:21:27;;;;;;;8.40;4.93;;;;;;;-1.86;68.30;98447.31;5116965;27;20446;-75
2023/01/05 08:23:52;;;;;;;7.70;4.78;;;;;;;-1.83;67.93;98444.59;5120668;27;20408;-74
2023/01/05 08:26:18;;;;;;;7.95;4.10;;;;;;;-1.81;68.02;98438.44;5068449;27;20046;-75
2023/01/05 08:28:44;;;;;;;6.90;4.55;;;;;;;-1.83;68.18;98441.97;5076325;27;20095;-77
2023/01/05 08:31:15;;;;;;;7.18;4.93;;;;;;;-1.81;68.31;98443.66;5121487;27;20046;-75
2023/01/05 08:33:39;;;;;;;9.05;5.32;;;;;;;-1.85;68.12;98443.78;5103889;27;20560;-76
2023/01/05 08:36:09;;;;;;;12.18;7.20;;;;;;;-1.84;68.23;98440.25;5103929;27;20451;-76
2023/01/05 08:38:34;;;;;;;11.65;5.72;;;;;;;-1.88;68.09;98438.69;5121670;27;20121;-76
2023/01/05 08:40:59;;;;;;;8.65;5.35;;;;;;;-1.86;68.15;98436.84;5125294;27;20070;-74
2023/01/05 08:43:23;;;;;;;8.65;5.18;;;;;;;-1.86;68.48;98429.03;5105694;27;20484;-73
2023/01/05 08:45:49;;;;;;;8.18;5.22;;;;;;;-1.86;68.54;98431.63;5125247;27;20521;-75
2023/01/05 08:48:13;;;;;;;8.00;5.25;;;;;;;-1.84;68.16;98429.81;5109388;27;20496;-73
2023/01/05 08:50:38;;;;;;;9.50;5.07;;;;;;;-1.82;68.24;98421.91;5132963;27;20519;-76
2023/01/05 08:53:03;;;;;;;7.22;4.35;;;;;;;-1.81;68.27;98422.78;5122068;27;20091;-74
2023/01/05 08:55:28;;;;;;;9.95;5.75;;;;;;;-1.83;67.98;98418.47;5121874;27;20409;-73
2023/01/05 08:57:55;;;;;;;15.25;5.30;;;;;;;-1.85;68.05;98415.06;5120817;27;20408;-74
2023/01/05 09:00:20;;;;;;;8.70;4.97;;;;;;;-1.87;68.23;98414.25;5102128;27;20050;-74
2023/01/05 09:02:45;;;;;;;12.93;6.43;;;;;;;-1.84;68.04;98408.91;5101701;27;20042;-73
2023/01/05 09:05:10;;;;;;;6.05;4.25;;;;;;;-1.81;68.23;98415.78;5100849;27;20046;-72
2023/01/05 09:07:34;;;;;;;8.20;4.30;;;;;;;-1.80;68.35;98409.63;5119027;27;20130;-73
2023/01/05 09:09:59;;;;;;;12.23;5.38;;;;;;;-1.80;68.36;98414.84;5119193;27;20058;-74
2023/01/05 09:12:24;;;;;;;9.25;6.78;;;;;;;-1.79;67.59;98406.09;5101533;27;20500;-75
2023/01/05 09:14:48;;;;;;;6.78;4.18;;;;;;;-1.76;67.83;98399.91;5101077;27;20079;-73
2023/01/05 09:17:13;;;;;;;7.70;4.80;;;;;;;-1.79;68.04;98406.09;5101480;27;20042;-72
2023/01/05 09:19:37;;;;;;;10.27;4.68;;;;;;;-1.80;68.11;98398.31;5120460;27;20039;-73
2023/01/05 09:22:03;;;;;;;8.57;5.97;;;;;;;-1.89;67.61;98400.41;5120108;27;20030;-74
2023/01/05 09:24:27;;;;;;;10.27;5.25;;;;;;;-1.97;67.34;98394.66;5121385;27;20053;-72
2023/01/05 09:26:52;;;;;;;7.70;4.57;;;;;;;-2.04;67.78;98390.63;5120277;27;20400;-73
2023/01/05 09:29:17;;;;;;;7.55;5.18;;;;;;;-2.11;67.69;98386.53;5121434;27;20043;-72
2023/01/05 09:31:42;;;;;;;8.73;5.20;;;;;;;-2.18;68.08;98387.69;5101225;27;20435;-73
2023/01/05 09:34:07;;;;;;;8.10;5.35;;;;;;;-2.22;68.31;98386.97;5123098;27;20038;-73
2023/01/05 09:36:32;;;;;;;6.47;4.43;;;;;;;-2.27;68.13;98382.84;5101860;27;20083;-73
2023/01/05 09:38:56;;;;;;;8.13;5.25;;;;;;;-2.33;68.43;98383.09;5100282;27;20041;-73
2023/01/05 09:41:45;;;;;;;9.18;4.63;;;;;;;-2.35;68.73;98383.16;5119243;27;20070;-74
2023/01/05 09:44:25;;;;;;;9.73;5.55;;;;;;;-2.42;68.93;98381.69;5071741;27;20046;-74
2023/01/05 09:46:51;;;;;;;8.88;5.55;;;;;;;-2.47;68.91;98380.16;5121702;27;20035;-74
2023/01/05 09:49:20;;;;;;;8.77;4.70;;;;;;;-2.53;68.77;98376.06;5122184;27;20130;-73
2023/01/05 09:51:44;;;;;;;10.68;5.15;;;;;;;-2.60;68.86;98366.78;5104583;27;20047;-74
2023/01/05 09:54:17;;;;;;;10.25;4.78;;;;;;;-2.65;69.27;98374.78;5101696;27;20052;-74
2023/01/05 09:56:45;;;;;;;8.15;4.57;;;;;;;-2.71;69.32;98367.16;5100550;27;20138;-73
2023/01/05 09:59:17;;;;;;;9.05;4.63;;;;;;;-2.75;69.21;98370.81;5119699;27;20054;-74
2023/01/05 10:01:46;;;;;;;9.85;4.85;;;;;;;-2.78;69.53;98365.72;5099640;27;20077;-73
2023/01/05 10:04:16;;;;;;;8.43;4.75;;;;;;;-2.82;69.41;98374.53;5117872;27;20046;-74
2023/01/05 10:06:45;;;;;;;10.18;4.90;;;;;;;-2.83;69.47;98369.41;5124568;27;20046;-72
2023/01/05 10:09:16;;;;;;;8.70;5.18;;;;;;;-2.81;69.44;98362.34;5104033;27;20091;-71
2023/01/05 10:15:08;;;;;;;6.88;4.35;;;;;;;-2.81;68.98;98360.59;5125450;27;20565;-74
2023/01/05 10:17:38;;;;;;;8.90;4.60;;;;;;;-2.84;68.88;98360.75;5127104;27;20095;-72
2023/01/05 10:20:12;;;;;;;10.88;4.15;;;;;;;-2.80;68.47;98361.44;5099830;27;20074;-73
2023/01/05 10:22:46;;;;;;;;;;;;;;;-2.73;69.23;98360.34;5099776;27;20053;-71
2023/01/05 10:25:48;;;;;;;7.43;4.32;;;;;;;-2.84;68.70;98355.53;5117636;27;19938;-73
2023/01/05 10:28:25;;;;;;;8.57;5.07;;;;;;;-2.95;68.91;98362.91;5030811;28;20056;-72
2023/01/05 10:30:57;;;;;;;9.02;4.45;;;;;;;-3.02;69.07;98364.03;5027994;28;20056;-72
2023/01/05 10:33:48;;;;;;;7.25;4.55;;;;;;;-3.07;68.86;98359.00;5036832;28;20040;-73
2023/01/05 10:36:29;;;;;;;7.63;4.97;;;;;;;-3.16;69.00;98355.91;5024503;28;20048;-72
2023/01/05 10:39:01;;;;;;;9.32;5.63;;;;;;;-3.24;69.40;98363.13;5022068;28;20590;-74
2023/01/05 10:41:37;;;;;;;10.43;6.80;;;;;;;-3.28;69.20;98353.72;5034477;28;20048;-73
2023/01/05 10:44:30;;;;;;;8.75;5.18;;;;;;;-3.31;69.68;98363.34;5033590;28;20086;-74
2023/01/05 10:46:54;;;;;;;9.15;4.97;;;;;;;-3.38;69.35;98359.25;5040575;28;20040;-74
2023/01/05 10:49:25;;;;;;;9.75;5.95;;;;;;;-3.38;69.02;98369.69;5016619;28;20043;-73
2023/01/05 10:51:51;;;;;;;10.77;5.45;;;;;;;-3.42;69.35;98362.91;5006640;28;20051;-78
2023/01/05 10:54:41;;;;;;;12.07;5.85;;;;;;;-3.46;69.18;98361.28;5034889;28;20036;-74
2023/01/05 10:57:31;;;;;;;9.77;6.30;;;;;;;-3.56;69.23;98367.75;5025421;28;20067;-75
2023/01/05 11:00:04;;;;;;;8.55;5.20;;;;;;;-3.71;69.47;98365.66;5034222;28;20113;-73
2023/01/05 11:02:34;;;;;;;9.30;5.47;;;;;;;-3.78;69.26;98366.78;5033757;28;20043;-75
2023/01/05 11:05:25;;;;;;;8.55;5.45;;;;;;;-3.79;69.86;98359.88;5117644;27;20049;-76
2023/01/05 11:07:52;;;;;;;7.50;4.97;;;;;;;-3.80;70.55;98358.16;5098981;27;20090;-75
2023/01/05 11:10:24;;;;;;;8.30;5.40;;;;;;;-3.86;70.83;98368.81;5098579;27;20042;-74
2023/01/05 11:12:57;;;;;;;14.90;5.85;;;;;;;-3.96;70.68;98372.63;5061638;27;20054;-75
2023/01/05 11:15:22;;;;;;;13.85;7.32;;;;;;;-3.99;71.13;98376.19;5091608;27;20090;-75
2023/01/05 11:17:47;;;;;;;10.25;5.40;;;;;;;-4.08;70.36;98360.88;5098490;27;20110;-73
2023/01/05 11:20:16;;;;;;;12.57;6.40;;;;;;;-4.06;70.76;98356.44;5117042;27;20127;-76
2023/01/05 11:22:43;;;;;;;11.63;5.72;;;;;;;-4.16;71.07;98368.06;5117094;27;20031;-75
2023/01/05 11:25:26;;;;;;;8.85;5.75;;;;;;;-4.21;70.94;98363.03;5098400;27;20163;-73
2023/01/05 11:28:16;;;;;;;7.72;4.15;;;;;;;-4.11;71.18;98367.03;5116398;27;20066;-74
2023/01/05 11:31:00;;;;;;;12.55;6.25;;;;;;;-4.26;71.56;98366.66;5116678;27;20047;-74
2023/01/05 11:33:27;;;;;;;7.22;4.25;;;;;;;-4.34;71.47;98377.31;5073673;27;20049;-72
2023/01/05 11:35:52;;;;;;;12.88;6.53;;;;;;;-4.37;71.29;98356.59;5070559;27;20386;-74
2023/01/05 11:38:26;;;;;;;10.38;5.95;;;;;;;-4.31;70.86;98369.44;5116033;27;20392;-72
2023/01/05 11:40:54;;;;;;;10.25;5.93;;;;;;;-4.28;70.90;98360.66;5116406;27;20038;-74
2023/01/05 11:43:20;;;;;;;7.43;5.32;;;;;;;-4.21;70.50;98364.78;5121184;27;20038;-74
2023/01/05 11:45:49;;;;;;;10.30;5.45;;;;;;;-4.18;70.60;98368.13;5098690;27;20089;-72
2023/01/05 11:48:19;;;;;;;10.35;5.35;;;;;;;-4.17;70.04;98371.56;5097642;27;20405;-74
2023/01/05 11:50:53;;;;;;;10.23;5.55;;;;;;;-4.20;69.98;98359.53;5097682;27;20404;-76
2023/01/05 11:53:24;;;;;;;8.07;5.38;;;;;;;-4.17;70.19;98372.41;5116272;27;20505;-74
2023/01/05 11:56:13;;;;;;;7.20;5.30;;;;;;;-4.20;69.90;98362.13;5096998;27;20393;-74
2023/01/05 11:58:45;;;;;;;7.00;4.78;;;;;;;-4.22;69.36;98363.94;5065760;27;20148;-75
2023/01/05 12:01:51;;;;;;;13.07;4.70;;;;;;;-4.20;69.89;98351.72;5116111;27;20045;-75
2023/01/05 12:04:26;;;;;;;9.63;5.40;;;;;;;-4.24;70.09;98354.47;5097385;27;20042;-74
2023/01/05 12:07:02;;;;;;;11.25;5.72;;;;;;;-4.31;69.87;98352.97;5115866;27;20143;-76
2023/01/05 12:09:31;;;;;;;8.38;5.18;;;;;;;-4.34;69.19;98356.50;5114390;27;20042;-75
2023/01/05 12:12:15;;;;;;;10.00;5.35;;;;;;;-4.39;69.18;98350.59;5114828;27;20039;-74
2023/01/05 12:14:43;;;;;;;4.47;3.25;;;;;;;-4.45;69.00;98351.66;5115943;27;20095;-75